createdAt,value
2022-10-17T00:02:01.267Z,7.94
2022-10-17T00:04:27.851Z,7.92
2022-10-17T00:06:54.891Z,7.87
2022-10-17T00:09:21.358Z,7.86
2022-10-17T00:11:47.914Z,7.84
2022-10-17T00:14:14.376Z,7.81
2022-10-17T00:16:40.925Z,7.79
2022-10-17T00:19:07.469Z,7.77
2022-10-17T00:21:34.426Z,7.72
2022-10-17T00:24:01.695Z,7.68
2022-10-17T00:26:28.390Z,7.66
2022-10-17T00:28:55.375Z,7.67
2022-10-17T00:31:23.995Z,7.69
2022-10-17T00:33:51.737Z,7.68
2022-10-17T00:36:24.633Z,7.67
2022-10-17T00:38:54.040Z,7.67
2022-10-17T00:41:23.998Z,7.67
2022-10-17T00:43:55.575Z,7.66
2022-10-17T00:46:23.597Z,7.64
2022-10-17T00:48:52.918Z,7.62
2022-10-17T00:51:24.052Z,7.60
2022-10-17T00:53:51.208Z,7.60
2022-10-17T00:56:21.032Z,7.57
2022-10-17T00:58:48.181Z,7.55
2022-10-17T01:01:15.364Z,7.53
2022-10-17T01:03:42.042Z,7.51
2022-10-17T01:06:08.626Z,7.48
2022-10-17T01:08:35.468Z,7.46
2022-10-17T01:11:28.571Z,7.44
2022-10-17T01:14:09.206Z,7.41
2022-10-17T01:17:14.712Z,7.38
2022-10-17T01:20:10.038Z,7.36
2022-10-17T01:22:45.916Z,7.36
2022-10-17T01:25:57.351Z,7.37
2022-10-17T01:28:26.573Z,7.39
2022-10-17T01:31:04.851Z,7.37
2022-10-17T01:33:37.015Z,7.35
2022-10-17T01:36:42.167Z,7.33
2022-10-17T01:39:47.891Z,7.35
2022-10-17T01:42:34.132Z,7.34
2022-10-17T01:45:03.619Z,7.32
2022-10-17T01:47:33.663Z,7.33
2022-10-17T01:50:10.750Z,7.33
2022-10-17T01:52:43.861Z,7.29
2022-10-17T01:55:17.354Z,7.26
2022-10-17T01:57:51.625Z,7.24
2022-10-17T02:00:22.267Z,7.22
2022-10-17T02:02:53.050Z,7.19
2022-10-17T02:05:24.913Z,7.16
2022-10-17T02:07:51.451Z,7.12
2022-10-17T02:10:32.646Z,7.09
2022-10-17T02:13:15.255Z,7.05
2022-10-17T02:16:00.197Z,7.02
2022-10-17T02:18:46.944Z,7.00
2022-10-17T02:21:18.986Z,6.96
2022-10-17T02:24:18.394Z,6.93
2022-10-17T02:26:56.536Z,6.89
2022-10-17T02:29:30.867Z,6.87
2022-10-17T02:32:06.879Z,6.86
2022-10-17T02:35:03.772Z,6.87
2022-10-17T02:37:32.055Z,6.87
2022-10-17T02:40:00.924Z,6.84
2022-10-17T02:42:29.578Z,6.83
2022-10-17T02:45:00.431Z,6.82
2022-10-17T02:47:49.917Z,6.82
2022-10-17T02:50:16.708Z,6.86
2022-10-17T02:52:52.978Z,6.89
2022-10-17T02:55:31.807Z,6.92
2022-10-17T02:58:08.605Z,6.93
2022-10-17T03:00:35.540Z,6.91
2022-10-17T03:03:01.932Z,6.92
2022-10-17T03:05:29.750Z,6.93
2022-10-17T03:07:57.211Z,6.92
2022-10-17T03:10:23.749Z,6.91
2022-10-17T03:12:50.288Z,6.91
2022-10-17T03:15:16.844Z,6.89
2022-10-17T03:17:43.364Z,6.86
2022-10-17T03:20:10.432Z,6.83
2022-10-17T03:22:37.164Z,6.80
2022-10-17T03:25:03.804Z,6.77
2022-10-17T03:27:30.566Z,6.72
2022-10-17T03:29:57.808Z,6.69
2022-10-17T03:32:24.351Z,6.66
2022-10-17T03:34:50.896Z,6.62
2022-10-17T03:37:17.369Z,6.61
2022-10-17T03:39:43.873Z,6.58
2022-10-17T03:42:10.302Z,6.56
2022-10-17T03:44:36.849Z,6.53
2022-10-17T03:47:03.388Z,6.51
2022-10-17T03:49:29.929Z,6.53
2022-10-17T03:51:56.471Z,6.55
2022-10-17T03:54:23.012Z,6.53
2022-10-17T03:56:49.632Z,6.50
2022-10-17T03:59:16.843Z,6.48
2022-10-17T04:01:43.867Z,6.44
2022-10-17T04:04:10.817Z,6.45
2022-10-17T04:06:38.478Z,6.53
2022-10-17T04:09:06.684Z,6.55
2022-10-17T04:11:33.621Z,6.57
2022-10-17T04:14:00.246Z,6.63
2022-10-17T04:16:27.408Z,6.65
2022-10-17T04:18:59.086Z,6.64
2022-10-17T04:21:27.395Z,6.62
2022-10-17T04:23:58.619Z,6.60
2022-10-17T04:26:25.980Z,6.57
2022-10-17T04:28:53.168Z,6.55
2022-10-17T04:31:19.781Z,6.52
2022-10-17T04:33:50.798Z,6.49
2022-10-17T04:36:19.736Z,6.46
2022-10-17T04:38:47.055Z,6.43
2022-10-17T04:41:16.176Z,6.41
2022-10-17T04:43:45.599Z,6.40
2022-10-17T04:46:15.587Z,6.39
2022-10-17T04:48:42.378Z,6.39
2022-10-17T04:51:15.065Z,6.38
2022-10-17T04:53:43.648Z,6.37
2022-10-17T04:56:21.535Z,6.38
2022-10-17T04:58:48.954Z,6.40
2022-10-17T05:01:19.112Z,6.40
2022-10-17T05:03:46.756Z,6.43
2022-10-17T05:06:15.891Z,6.43
2022-10-17T05:08:42.623Z,6.44
2022-10-17T05:11:17.668Z,6.48
2022-10-17T05:13:44.289Z,6.51
2022-10-17T05:16:10.722Z,6.53
2022-10-17T05:18:37.269Z,6.54
2022-10-17T05:21:04.425Z,6.55
2022-10-17T05:23:30.954Z,6.56
2022-10-17T05:25:57.490Z,6.58
2022-10-17T05:28:24.434Z,6.63
2022-10-17T05:30:51.020Z,6.68
2022-10-17T05:33:17.845Z,6.75
2022-10-17T05:35:44.287Z,6.83
2022-10-17T05:38:10.804Z,7.01
2022-10-17T05:40:37.444Z,7.31
2022-10-17T05:43:03.921Z,7.63
2022-10-17T05:45:30.419Z,7.91
2022-10-17T05:47:57.265Z,8.24
2022-10-17T05:50:23.806Z,8.58
2022-10-17T05:52:53.596Z,8.90
2022-10-17T05:55:20.164Z,9.25
2022-10-17T05:57:46.705Z,9.65
2022-10-17T06:00:13.967Z,9.95
2022-10-17T06:02:40.435Z,10.34
2022-10-17T06:05:07.454Z,10.72
2022-10-17T06:07:33.997Z,11.05
2022-10-17T06:10:00.541Z,11.31
2022-10-17T06:12:27.315Z,11.54
2022-10-17T06:14:54.235Z,11.83
2022-10-17T06:17:21.079Z,12.23
2022-10-17T06:19:47.621Z,12.52
2022-10-17T06:22:14.421Z,12.72
2022-10-17T06:24:41.371Z,12.83
2022-10-17T06:27:11.707Z,12.95
2022-10-17T06:29:38.594Z,13.04
2022-10-17T06:32:06.906Z,13.20
2022-10-17T06:34:35.269Z,13.55
2022-10-17T06:37:01.929Z,13.84
2022-10-17T06:39:28.453Z,14.02
2022-10-17T06:41:55.029Z,14.14
2022-10-17T06:44:21.537Z,14.32
2022-10-17T06:46:48.000Z,14.57
2022-10-17T06:49:14.514Z,14.65
2022-10-17T06:51:41.056Z,14.90
2022-10-17T06:54:07.527Z,15.26
2022-10-17T06:56:34.139Z,15.63
2022-10-17T06:59:00.672Z,15.91
2022-10-17T07:01:27.212Z,16.22
2022-10-17T07:03:53.649Z,16.48
2022-10-17T07:06:20.494Z,16.63
2022-10-17T07:08:47.035Z,16.76
2022-10-17T07:11:16.471Z,16.79
2022-10-17T07:13:43.905Z,16.95
2022-10-17T07:16:11.988Z,17.16
2022-10-17T07:18:38.760Z,17.31
2022-10-17T07:21:05.667Z,17.40
2022-10-17T07:23:32.521Z,17.55
2022-10-17T07:26:04.496Z,17.82
2022-10-17T07:28:31.054Z,17.88
2022-10-17T07:31:06.731Z,18.03
2022-10-17T07:33:33.386Z,18.31
2022-10-17T07:36:00.793Z,18.57
2022-10-17T07:38:30.919Z,18.78
2022-10-17T07:40:59.782Z,18.95
2022-10-17T07:43:27.565Z,18.99
2022-10-17T07:45:54.845Z,19.15
2022-10-17T07:48:23.219Z,19.33
2022-10-17T07:50:49.864Z,19.46
2022-10-17T07:53:16.916Z,19.48
2022-10-17T07:55:43.879Z,19.27
2022-10-17T07:58:10.625Z,19.19
2022-10-17T08:00:37.771Z,19.10
2022-10-17T08:03:04.703Z,18.93
2022-10-17T08:05:32.290Z,18.78
2022-10-17T08:07:59.047Z,18.73
2022-10-17T08:10:25.756Z,18.80
2022-10-17T08:12:52.189Z,18.82
2022-10-17T08:15:18.730Z,18.82
2022-10-17T08:17:45.231Z,18.92
2022-10-17T08:20:12.121Z,19.12
2022-10-17T08:22:38.807Z,19.31
2022-10-17T08:25:05.882Z,19.62
2022-10-17T08:27:36.209Z,19.94
2022-10-17T08:30:03.605Z,20.31
2022-10-17T08:32:30.365Z,20.57
2022-10-17T08:34:57.094Z,20.84
2022-10-17T08:37:23.752Z,21.09
2022-10-17T08:39:50.233Z,21.17
2022-10-17T08:42:50.400Z,21.18
2022-10-17T08:45:21.544Z,21.32
2022-10-17T08:47:54.533Z,21.50
2022-10-17T08:50:32.852Z,21.56
2022-10-17T08:53:11.610Z,21.69
2022-10-17T08:55:46.536Z,21.92
2022-10-17T08:58:15.002Z,22.13
2022-10-17T09:00:48.100Z,21.99
2022-10-17T09:03:30.269Z,21.79
2022-10-17T09:06:05.864Z,22.09
2022-10-17T09:08:38.333Z,22.42
2022-10-17T09:11:26.357Z,22.81
2022-10-17T09:14:19.401Z,23.09
2022-10-17T09:17:01.974Z,23.28
2022-10-17T09:19:39.063Z,23.50
2022-10-17T09:22:22.904Z,23.63
2022-10-17T09:24:54.240Z,23.78
2022-10-17T09:27:48.634Z,23.79
2022-10-17T09:30:51.562Z,23.52
2022-10-17T09:33:42.215Z,23.72
2022-10-17T09:36:20.442Z,23.92
2022-10-17T09:38:52.109Z,23.91
2022-10-17T09:41:44.256Z,23.97
2022-10-17T09:44:25.397Z,23.94
2022-10-17T09:47:23.330Z,23.97
2022-10-17T09:49:50.666Z,24.27
2022-10-17T09:52:22.339Z,24.43
2022-10-17T09:54:52.962Z,24.56
2022-10-17T09:57:21.502Z,24.50
2022-10-17T09:59:57.760Z,24.23
2022-10-17T10:02:26.110Z,23.92
2022-10-17T10:05:17.116Z,24.03
2022-10-17T10:08:00.961Z,24.26
2022-10-17T10:10:29.305Z,24.07
2022-10-17T10:13:15.390Z,23.75
2022-10-17T10:15:44.171Z,23.38
2022-10-17T10:18:26.151Z,23.20
2022-10-17T10:21:14.319Z,23.13
2022-10-17T10:23:43.909Z,23.02
2022-10-17T10:26:25.997Z,23.05
2022-10-17T10:28:57.017Z,22.96
2022-10-17T10:31:33.366Z,22.80
2022-10-17T10:34:03.039Z,22.63
2022-10-17T10:36:49.016Z,22.70
2022-10-17T10:39:31.833Z,22.73
2022-10-17T10:41:59.966Z,22.86
2022-10-17T10:44:29.498Z,22.94
2022-10-17T10:47:21.326Z,23.09
2022-10-17T10:49:50.369Z,23.24
2022-10-17T10:52:50.894Z,23.17
2022-10-17T10:55:26.445Z,23.13
2022-10-17T10:57:58.421Z,23.09
2022-10-17T11:00:28.713Z,22.94
2022-10-17T11:03:08.453Z,22.82
2022-10-17T11:05:48.452Z,22.79
2022-10-17T11:08:31.123Z,22.86
2022-10-17T11:11:03.664Z,22.93
2022-10-17T11:14:11.739Z,23.07
2022-10-17T11:17:04.523Z,22.93
2022-10-17T11:19:46.776Z,22.98
2022-10-17T11:22:26.667Z,23.02
2022-10-17T11:25:05.407Z,23.12
2022-10-17T11:27:34.303Z,23.14
2022-10-17T11:30:01.668Z,23.27
2022-10-17T11:32:36.907Z,23.47
2022-10-17T11:35:08.126Z,23.65
2022-10-17T11:37:41.033Z,23.80
2022-10-17T11:40:27.361Z,23.85
2022-10-17T11:43:03.924Z,23.93
2022-10-17T11:45:42.754Z,23.97
2022-10-17T11:48:17.688Z,23.88
2022-10-17T11:54:15.113Z,23.95
2022-10-17T11:57:28.370Z,23.97
2022-10-17T12:00:16.362Z,24.00
2022-10-17T12:02:53.449Z,24.06
2022-10-17T12:05:43.443Z,24.19
2022-10-17T12:08:37.196Z,24.23
2022-10-17T12:11:11.237Z,24.07
2022-10-17T12:13:37.715Z,24.05
2022-10-17T12:16:19.468Z,24.02
2022-10-17T12:19:10.588Z,23.96
2022-10-17T12:22:06.923Z,23.90
2022-10-17T12:24:43.312Z,23.71
2022-10-17T12:27:38.208Z,23.76
2022-10-17T12:30:24.438Z,23.88
2022-10-17T12:33:08.536Z,23.98
2022-10-17T12:35:37.276Z,24.09
2022-10-17T12:38:17.790Z,24.22
2022-10-17T12:40:48.629Z,24.31
2022-10-17T12:43:15.546Z,24.26
2022-10-17T12:45:58.116Z,24.32
2022-10-17T12:48:33.659Z,24.48
2022-10-17T12:53:57.160Z,24.68
2022-10-17T12:56:39.569Z,24.70
2022-10-17T12:59:21.267Z,24.62
2022-10-17T13:01:52.856Z,24.59
2022-10-17T13:04:20.319Z,24.61
2022-10-17T13:06:51.141Z,24.64
2022-10-17T13:09:37.562Z,24.61
2022-10-17T13:12:12.188Z,24.60
2022-10-17T13:14:42.319Z,24.59
2022-10-17T13:17:29.924Z,24.61
2022-10-17T13:19:57.178Z,24.61
2022-10-17T13:22:30.521Z,24.57
2022-10-17T13:25:13.939Z,24.61
2022-10-17T13:27:40.394Z,24.63
2022-10-17T13:30:32.142Z,24.64
2022-10-17T13:33:00.279Z,24.68
2022-10-17T13:38:28.650Z,24.76
2022-10-17T13:41:02.005Z,24.79
2022-10-17T13:43:38.033Z,24.75
2022-10-17T13:46:19.162Z,24.75
2022-10-17T13:48:51.586Z,24.76
2022-10-17T13:51:18.170Z,24.73
2022-10-17T13:53:44.666Z,24.72
2022-10-17T13:56:29.531Z,24.70
2022-10-17T13:59:00.002Z,24.66
2022-10-17T14:01:29.368Z,24.64
2022-10-17T14:04:07.767Z,24.60
2022-10-17T14:06:45.039Z,24.56
2022-10-17T14:09:23.513Z,24.60
2022-10-17T14:11:58.337Z,24.81
2022-10-17T14:14:26.418Z,25.02
2022-10-17T14:16:53.462Z,25.36
2022-10-17T14:19:33.414Z,25.78
2022-10-17T14:22:18.810Z,26.20
2022-10-17T14:24:45.847Z,26.58
2022-10-17T14:27:32.335Z,26.93
2022-10-17T14:30:01.025Z,27.42
2022-10-17T14:35:30.274Z,27.96
2022-10-17T14:37:58.870Z,27.26
2022-10-17T14:40:27.542Z,26.68
2022-10-17T14:42:58.195Z,26.79
2022-10-17T14:45:31.557Z,27.29
2022-10-17T14:48:06.521Z,27.54
2022-10-17T14:50:33.513Z,27.66
2022-10-17T14:53:12.212Z,27.72
2022-10-17T14:55:40.977Z,27.34
2022-10-17T14:58:25.234Z,26.89
2022-10-17T15:00:51.878Z,26.48
2022-10-17T15:03:18.490Z,25.77
2022-10-17T15:05:49.901Z,25.03
2022-10-17T15:08:18.852Z,24.38
2022-10-17T15:10:46.642Z,23.90
2022-10-17T15:13:27.556Z,23.39
2022-10-17T15:15:55.459Z,22.89
2022-10-17T15:18:21.947Z,22.47
2022-10-17T15:20:55.244Z,22.08
2022-10-17T15:23:31.287Z,21.70
2022-10-17T15:25:57.829Z,21.39
2022-10-17T15:28:24.485Z,21.12
2022-10-17T15:30:51.089Z,20.86
2022-10-17T15:33:17.545Z,20.47
2022-10-17T15:35:44.837Z,20.06
2022-10-17T15:38:17.011Z,19.68
2022-10-17T15:40:43.444Z,19.41
2022-10-17T15:43:10.049Z,19.14
2022-10-17T15:45:36.621Z,18.88
2022-10-17T15:48:06.925Z,18.62
2022-10-17T15:50:33.458Z,18.39
2022-10-17T15:53:06.055Z,18.17
2022-10-17T15:55:32.681Z,17.94
2022-10-17T15:57:59.219Z,17.71
2022-10-17T16:00:25.956Z,17.47
2022-10-17T16:02:52.601Z,17.23
2022-10-17T16:05:24.581Z,16.98
2022-10-17T16:07:54.845Z,16.76
2022-10-17T16:10:22.482Z,16.58
2022-10-17T16:12:49.613Z,16.42
2022-10-17T16:15:19.857Z,16.28
2022-10-17T16:17:46.310Z,16.15
2022-10-17T16:20:13.453Z,16.04
2022-10-17T16:22:41.658Z,15.93
2022-10-17T16:25:18.058Z,15.81
2022-10-17T16:27:45.071Z,15.69
2022-10-17T16:30:12.334Z,15.56
2022-10-17T16:32:38.981Z,15.45
2022-10-17T16:35:07.237Z,15.32
2022-10-17T16:37:33.935Z,15.18
2022-10-17T16:40:00.429Z,15.06
2022-10-17T16:42:27.044Z,14.92
2022-10-17T16:44:53.862Z,14.78
2022-10-17T16:47:20.396Z,14.65
2022-10-17T16:49:47.121Z,14.56
2022-10-17T16:52:13.642Z,14.43
2022-10-17T16:54:40.165Z,14.31
2022-10-17T16:57:06.958Z,14.20
2022-10-17T16:59:33.500Z,14.10
2022-10-17T17:02:00.017Z,13.99
2022-10-17T17:04:26.680Z,13.93
2022-10-17T17:06:53.336Z,13.91
2022-10-17T17:09:19.968Z,13.83
2022-10-17T17:11:46.737Z,13.74
2022-10-17T17:14:14.063Z,13.67
2022-10-17T17:16:40.735Z,13.58
2022-10-17T17:19:10.490Z,13.49
2022-10-17T17:21:37.266Z,13.37
2022-10-17T17:24:05.065Z,13.27
2022-10-17T17:26:34.218Z,13.18
2022-10-17T17:29:00.806Z,13.08
2022-10-17T17:31:30.503Z,12.99
2022-10-17T17:33:57.594Z,12.89
2022-10-17T17:36:34.505Z,12.79
2022-10-17T17:39:02.610Z,12.70
2022-10-17T17:41:29.375Z,12.63
2022-10-17T17:43:56.713Z,12.56
2022-10-17T17:46:24.689Z,12.52
2022-10-17T17:48:52.865Z,12.46
2022-10-17T17:51:24.302Z,12.38
2022-10-17T17:53:54.135Z,12.31
2022-10-17T17:56:27.358Z,12.23
2022-10-17T17:58:56.945Z,12.16
2022-10-17T18:01:25.465Z,12.09
2022-10-17T18:03:53.224Z,12.02
2022-10-17T18:06:21.577Z,11.99
2022-10-17T18:08:50.787Z,11.93
2022-10-17T18:11:19.729Z,11.89
2022-10-17T18:13:52.606Z,11.85
2022-10-17T18:16:19.013Z,11.82
2022-10-17T18:18:45.647Z,11.79
2022-10-17T18:21:14.030Z,11.76
2022-10-17T18:23:41.927Z,11.76
2022-10-17T18:26:09.369Z,11.72
2022-10-17T18:28:38.105Z,11.68
2022-10-17T18:31:11.165Z,11.65
2022-10-17T18:33:38.495Z,11.63
2022-10-17T18:36:07.738Z,11.63
2022-10-17T18:38:34.289Z,11.63
2022-10-17T18:41:04.996Z,11.59
2022-10-17T18:43:34.177Z,11.56
2022-10-17T18:46:08.534Z,11.55
2022-10-17T18:48:40.788Z,11.52
2022-10-17T18:51:07.918Z,11.47
2022-10-17T18:53:34.991Z,11.41
2022-10-17T18:56:01.492Z,11.35
2022-10-17T18:58:28.066Z,11.33
2022-10-17T19:00:54.537Z,11.32
2022-10-17T19:03:21.268Z,11.31
2022-10-17T19:05:47.705Z,11.28
2022-10-17T19:08:15.400Z,11.24
2022-10-17T19:10:42.679Z,11.20
2022-10-17T19:13:10.788Z,11.16
2022-10-17T19:15:40.808Z,11.14
2022-10-17T19:18:07.265Z,11.10
2022-10-17T19:20:33.784Z,11.07
2022-10-17T19:23:00.618Z,11.04
2022-10-17T19:25:27.157Z,11.01
2022-10-17T19:27:53.710Z,10.94
2022-10-17T19:30:20.254Z,10.88
2022-10-17T19:32:46.671Z,10.81
2022-10-17T19:35:13.211Z,10.77
2022-10-17T19:37:39.775Z,10.72
2022-10-17T19:40:07.138Z,10.71
2022-10-17T19:42:34.979Z,10.78
2022-10-17T19:45:01.845Z,10.81
2022-10-17T19:47:28.900Z,10.80
2022-10-17T19:49:55.496Z,10.78
2022-10-17T19:52:23.726Z,10.72
2022-10-17T19:54:50.227Z,10.67
2022-10-17T19:57:16.801Z,10.61
2022-10-17T19:59:43.242Z,10.60
2022-10-17T20:02:12.385Z,10.56
2022-10-17T20:04:49.558Z,10.52
2022-10-17T20:07:25.491Z,10.49
2022-10-17T20:09:51.931Z,10.44
2022-10-17T20:12:18.369Z,10.43
2022-10-17T20:14:44.783Z,10.38
2022-10-17T20:17:11.343Z,10.32
2022-10-17T20:19:37.790Z,10.27
2022-10-17T20:22:04.324Z,10.21
2022-10-17T20:24:30.864Z,10.14
2022-10-17T20:26:57.300Z,10.08
2022-10-17T20:29:23.847Z,10.02
2022-10-17T20:31:51.100Z,9.95
2022-10-17T20:34:18.895Z,9.90
2022-10-17T20:36:46.231Z,9.87
2022-10-17T20:39:15.540Z,9.82
2022-10-17T20:41:43.002Z,9.76
2022-10-17T20:44:10.115Z,9.72
2022-10-17T20:46:39.743Z,9.66
2022-10-17T20:49:15.235Z,9.62
2022-10-17T20:51:42.149Z,9.59
2022-10-17T20:54:09.120Z,9.57
2022-10-17T20:56:35.959Z,9.53
2022-10-17T20:59:10.360Z,9.49
2022-10-17T21:01:36.899Z,9.45
2022-10-17T21:04:27.159Z,9.41
2022-10-17T21:06:50.761Z,9.40
2022-10-17T21:09:17.943Z,9.38
2022-10-17T21:11:44.379Z,9.40
2022-10-17T21:14:11.790Z,9.40
2022-10-17T21:16:39.596Z,9.40
2022-10-17T21:19:06.274Z,9.41
2022-10-17T21:21:35.823Z,9.38
2022-10-17T21:24:08.140Z,9.34
2022-10-17T21:26:37.195Z,9.33
2022-10-17T21:29:04.606Z,9.29
2022-10-17T21:31:32.897Z,9.24
2022-10-17T21:34:01.776Z,9.18
2022-10-17T21:36:28.636Z,9.13
2022-10-17T21:38:56.628Z,9.07
2022-10-17T21:41:25.545Z,9.01
2022-10-17T21:43:58.165Z,8.96
2022-10-17T21:46:25.730Z,8.90
2022-10-17T21:48:52.902Z,8.84
2022-10-17T21:51:22.532Z,8.83
2022-10-17T21:53:50.114Z,8.83
2022-10-17T21:56:21.431Z,8.79
2022-10-17T21:58:49.054Z,8.79
2022-10-17T22:01:20.212Z,8.75
2022-10-17T22:03:50.059Z,8.74
2022-10-17T22:09:11.657Z,8.68
2022-10-17T22:11:38.351Z,8.68
2022-10-17T22:14:08.381Z,8.67
2022-10-17T22:16:34.978Z,8.65
2022-10-17T22:19:06.156Z,8.61
2022-10-17T22:21:35.252Z,8.59
2022-10-17T22:24:04.685Z,8.56
2022-10-17T22:26:33.069Z,8.50
2022-10-17T22:29:00.589Z,8.46
2022-10-17T22:31:27.187Z,8.41
2022-10-17T22:33:53.647Z,8.38
2022-10-17T22:36:20.361Z,8.36
2022-10-17T22:38:46.826Z,8.32
2022-10-17T22:41:13.540Z,8.30
2022-10-17T22:43:39.991Z,8.29
2022-10-17T22:46:07.443Z,8.28
2022-10-17T22:48:34.909Z,8.24
2022-10-17T22:51:02.473Z,8.20
2022-10-17T22:53:28.908Z,8.19
2022-10-17T22:56:17.097Z,8.17
2022-10-17T22:58:43.557Z,8.15
2022-10-17T23:01:14.610Z,8.16
2022-10-17T23:03:41.758Z,8.15
2022-10-17T23:06:08.247Z,8.12
2022-10-17T23:08:34.681Z,8.11
2022-10-17T23:11:01.332Z,8.10
2022-10-17T23:13:27.881Z,8.11
2022-10-17T23:15:56.358Z,8.10
2022-10-17T23:18:24.182Z,8.06
2022-10-17T23:20:51.623Z,8.02
2022-10-17T23:23:19.048Z,7.98
2022-10-17T23:25:45.995Z,7.95
2022-10-17T23:28:12.841Z,7.92
2022-10-17T23:30:39.992Z,7.87
2022-10-17T23:33:07.352Z,7.84
2022-10-17T23:35:35.445Z,7.82
2022-10-17T23:38:02.380Z,7.80
2022-10-17T23:40:29.224Z,7.79
2022-10-17T23:42:55.676Z,7.77
2022-10-17T23:45:22.250Z,7.74
2022-10-17T23:47:48.821Z,7.71
2022-10-17T23:50:15.509Z,7.70
2022-10-17T23:52:42.132Z,7.66
2022-10-17T23:55:09.595Z,7.62
2022-10-17T23:57:35.996Z,7.59
